Time;durP1;ratioP1;P1;durP2;ratioP2;P2;SDS_P1;SDS_P2;PMS_P1;PMS_P2;Temp;Humidity;BMP_temperature;BMP_pressure;BME280_temperature;BME280_humidity;BME280_pressure;Samples;Min_cycle;Max_cycle;Signal;HPM_P1;HPM_P2
2021/08/20 00:02:14;;;;;;;7.92;4.12;;;;;;;17.68;70.90;100441.41;1701237;83;21615;-83
2021/08/20 00:04:40;;;;;;;6.58;4.47;;;;;;;17.68;70.90;100433.83;1701679;84;21947;-84
2021/08/20 00:07:06;;;;;;;5.33;3.95;;;;;;;17.70;70.91;100445.22;1701624;83;20988;-83
2021/08/20 00:09:32;;;;;;;7.03;4.80;;;;;;;17.70;70.91;100447.40;1701589;83;21076;-83
2021/08/20 00:11:58;;;;;;;7.08;5.12;;;;;;;17.68;70.91;100441.92;1701851;83;21087;-83
2021/08/20 00:14:24;;;;;;;8.85;6.05;;;;;;;17.68;70.93;100437.88;1701822;84;21060;-83
2021/08/20 00:16:50;;;;;;;7.78;5.60;;;;;;;17.67;70.93;100442.95;1701860;84;21156;-83
2021/08/20 00:19:16;;;;;;;5.05;4.53;;;;;;;17.66;70.94;100442.12;1701671;83;21770;-83
2021/08/20 00:21:44;;;;;;;5.85;4.00;;;;;;;17.66;70.95;100435.93;1701846;84;21533;-83
2021/08/20 00:24:14;;;;;;;9.13;4.55;;;;;;;17.66;70.97;100438.62;1701884;84;20989;-83
2021/08/20 00:26:38;;;;;;;7.20;4.70;;;;;;;17.66;70.98;100433.23;1701445;83;21005;-83
2021/08/20 00:29:04;;;;;;;9.38;5.72;;;;;;;17.66;70.97;100437.28;1701619;84;21176;-83
2021/08/20 00:31:31;;;;;;;9.48;6.22;;;;;;;17.64;70.99;100435.30;1701705;84;20996;-84
2021/08/20 00:33:58;;;;;;;7.30;4.72;;;;;;;17.64;71.00;100442.05;1701606;84;21013;-83
2021/08/20 00:36:24;;;;;;;6.03;4.45;;;;;;;17.64;71.03;100440.69;1701133;83;21061;-83
2021/08/20 00:38:50;;;;;;;8.18;5.30;;;;;;;17.65;71.03;100432.91;1696473;84;20930;-84
2021/08/20 00:41:16;;;;;;;6.45;4.78;;;;;;;17.64;71.05;100433.44;1696446;84;22224;-83
2021/08/20 00:43:43;;;;;;;5.42;3.87;;;;;;;17.64;71.05;100435.30;1696446;84;21518;-83
2021/08/20 00:46:09;;;;;;;6.08;4.60;;;;;;;17.64;71.06;100435.30;1696553;84;20993;-83
2021/08/20 00:48:35;;;;;;;10.60;4.28;;;;;;;17.63;71.07;100435.81;1696244;84;21009;-83
2021/08/20 00:51:12;;;;;;;8.38;3.90;;;;;;;17.63;71.08;100430.42;1696713;84;21442;-83
2021/08/20 00:53:38;;;;;;;4.78;3.83;;;;;;;17.65;71.10;100434.27;1696259;84;21522;-83
2021/08/20 00:56:05;;;;;;;6.62;4.45;;;;;;;17.64;71.12;100429.39;1696472;84;21601;-83
2021/08/20 00:58:34;;;;;;;6.95;3.87;;;;;;;17.65;71.10;100427.52;1696412;84;21068;-83
2021/08/20 01:01:01;;;;;;;5.47;3.80;;;;;;;17.65;71.11;100420.78;1696565;84;21001;-83
2021/08/20 01:03:28;;;;;;;4.25;3.85;;;;;;;17.63;71.12;100426.89;1696686;84;21506;-83
2021/08/20 01:05:55;;;;;;;5.42;4.53;;;;;;;17.62;71.11;100423.91;1696247;84;21814;-83
2021/08/20 01:08:23;;;;;;;6.17;4.40;;;;;;;17.60;71.12;100428.67;1696566;84;20942;-83
2021/08/20 01:10:54;;;;;;;5.80;4.10;;;;;;;17.61;71.09;100429.83;1695186;84;21048;-83
2021/08/20 01:13:20;;;;;;;5.12;4.15;;;;;;;17.60;71.12;100425.46;1677308;84;21024;-83
2021/08/20 01:15:46;;;;;;;9.40;4.05;;;;;;;17.60;71.12;100423.28;1696369;84;20918;-83
2021/08/20 01:18:26;;;;;;;5.50;4.00;;;;;;;17.60;71.12;100423.28;1696522;84;21091;-83
2021/08/20 01:20:54;;;;;;;5.75;3.55;;;;;;;17.59;71.12;100420.30;1676474;84;21502;-83
2021/08/20 01:23:24;;;;;;;6.05;3.98;;;;;;;17.57;71.13;100415.11;1696324;84;21069;-83
2021/08/20 01:25:49;;;;;;;;;;;;;;;17.58;71.16;100422.68;1685428;84;20993;-83
2021/08/20 01:28:15;;;;;;;4.67;4.05;;;;;;;17.57;71.14;100421.02;1696312;83;20247;-83
2021/08/20 01:30:42;;;;;;;5.95;4.03;;;;;;;17.55;71.14;100426.61;1696379;84;21209;-83
2021/08/20 01:33:08;;;;;;;5.42;4.47;;;;;;;17.54;71.16;100428.16;1696510;84;21041;-83
2021/08/20 01:35:34;;;;;;;5.00;3.75;;;;;;;17.54;71.17;100430.34;1696615;84;21049;-83
2021/08/20 01:38:00;;;;;;;6.00;3.95;;;;;;;17.54;71.17;100430.86;1699588;84;21540;-83
2021/08/20 01:40:27;;;;;;;4.72;4.22;;;;;;;17.53;71.18;100423.80;1701536;83;21024;-83
2021/08/20 01:42:53;;;;;;;6.33;4.72;;;;;;;17.53;71.17;100427.84;1701852;83;21922;-84
2021/08/20 01:45:19;;;;;;;6.87;4.42;;;;;;;17.52;71.18;100423.52;1701746;83;21048;-83
2021/08/20 01:47:45;;;;;;;4.08;3.67;;;;;;;17.52;71.22;100429.74;1701931;84;21127;-83
2021/08/20 01:50:11;;;;;;;7.08;4.58;;;;;;;17.52;71.23;100428.91;1701731;83;20993;-83
2021/08/20 01:52:38;;;;;;;5.05;4.12;;;;;;;17.51;71.23;100424.55;1702060;83;20996;-83
2021/08/20 01:55:07;;;;;;;6.30;4.97;;;;;;;17.50;71.23;100419.67;1701710;84;21462;-83
2021/08/20 01:57:34;;;;;;;9.00;4.80;;;;;;;17.48;71.24;100426.64;1701436;84;21044;-83
2021/08/20 02:00:01;;;;;;;5.65;4.25;;;;;;;17.48;71.26;100420.42;1701992;84;21005;-83
2021/08/20 02:02:27;;;;;;;5.10;4.17;;;;;;;17.47;71.29;100418.23;1701657;84;21000;-83
2021/08/20 02:04:53;;;;;;;5.58;3.92;;;;;;;17.47;71.30;100424.15;1701768;84;21036;-84
2021/08/20 02:07:19;;;;;;;6.53;4.30;;;;;;;17.46;71.31;100430.05;1701655;84;21155;-83
2021/08/20 02:09:47;;;;;;;6.58;4.65;;;;;;;17.45;71.34;100428.94;1701561;84;21005;-83
2021/08/20 02:12:14;;;;;;;6.33;4.80;;;;;;;17.45;71.35;100427.05;1701625;84;20993;-83
2021/08/20 02:14:40;;;;;;;7.75;5.17;;;;;;;17.44;71.36;100425.41;1701850;83;20993;-83
2021/08/20 02:17:06;;;;;;;7.17;4.62;;;;;;;17.44;71.37;100426.76;1701720;83;21064;-83
2021/08/20 02:19:35;;;;;;;8.60;4.53;;;;;;;17.43;71.38;100422.40;1701606;83;21133;-83
2021/08/20 02:22:01;;;;;;;7.08;4.58;;;;;;;17.45;71.41;100427.05;1701956;84;20957;-83
2021/08/20 02:24:27;;;;;;;6.78;4.75;;;;;;;17.44;71.42;100431.32;1701614;84;20886;-84
2021/08/20 02:26:53;;;;;;;6.80;5.33;;;;;;;17.43;71.43;100430.48;1701474;83;20992;-83
2021/08/20 02:29:19;;;;;;;6.83;5.62;;;;;;;17.43;71.45;100427.80;1701418;83;21012;-83
2021/08/20 02:31:45;;;;;;;8.53;5.60;;;;;;;17.43;71.47;100428.30;1701536;83;21048;-83
2021/08/20 02:34:11;;;;;;;8.05;5.05;;;;;;;17.42;71.47;100432.03;1701754;83;21025;-83
2021/08/20 02:36:37;;;;;;;8.33;5.05;;;;;;;17.40;71.47;100428.22;1701672;83;21627;-83
2021/08/20 02:39:03;;;;;;;5.97;5.25;;;;;;;17.38;71.50;100430.28;1696509;84;21635;-83
2021/08/20 02:41:29;;;;;;;7.15;5.25;;;;;;;17.37;71.52;100436.74;1696141;84;21691;-83
2021/08/20 02:43:55;;;;;;;9.85;6.72;;;;;;;17.37;71.53;100434.56;1696280;84;21954;-83
2021/08/20 02:46:22;;;;;;;8.13;6.08;;;;;;;17.34;71.56;100433.13;1696298;84;21021;-83
2021/08/20 02:48:48;;;;;;;6.15;5.22;;;;;;;17.33;71.57;100436.86;1696465;84;21009;-83
2021/08/20 02:51:14;;;;;;;6.20;4.90;;;;;;;17.33;71.60;100437.37;1696565;84;21111;-83
2021/08/20 02:53:41;;;;;;;7.35;5.20;;;;;;;17.31;71.62;100430.83;1696789;84;21017;-83
2021/08/20 02:56:07;;;;;;;6.83;5.65;;;;;;;17.28;71.65;100433.95;1696497;84;21104;-83
2021/08/20 02:58:33;;;;;;;7.80;4.92;;;;;;;17.27;71.70;100437.72;1696533;83;21505;-83
2021/08/20 03:00:59;;;;;;;8.68;5.83;;;;;;;17.26;71.71;100438.75;1696504;84;21092;-83
2021/08/20 03:03:25;;;;;;;7.55;4.78;;;;;;;17.23;71.73;100439.17;1696444;84;21454;-83
2021/08/20 03:05:51;;;;;;;7.62;5.12;;;;;;;17.22;71.79;100443.42;1696630;84;21703;-83
2021/08/20 03:08:17;;;;;;;6.53;4.90;;;;;;;17.20;71.81;100440.95;1696541;84;21056;-83
2021/08/20 03:10:43;;;;;;;7.83;5.45;;;;;;;17.18;71.83;100444.88;1696320;84;20873;-83
2021/08/20 03:13:09;;;;;;;6.47;4.30;;;;;;;17.16;71.88;100448.31;1696879;83;20921;-83
2021/08/20 03:15:35;;;;;;;5.83;4.47;;;;;;;17.13;71.93;100448.23;1696409;84;21072;-83
2021/08/20 03:18:01;;;;;;;5.35;4.33;;;;;;;17.12;71.94;100445.22;1696605;84;20954;-82
2021/08/20 03:20:27;;;;;;;6.15;4.20;;;;;;;17.12;72.01;100451.95;1696594;84;21041;-83
2021/08/20 03:22:53;;;;;;;6.30;4.78;;;;;;;17.10;72.03;100444.58;1696589;84;20996;-83
2021/08/20 03:25:19;;;;;;;5.45;4.62;;;;;;;17.10;72.06;100447.27;1696402;84;20997;-83
2021/08/20 03:27:45;;;;;;;7.70;5.05;;;;;;;17.10;72.08;100449.16;1696657;84;21099;-83
2021/08/20 03:30:12;;;;;;;8.20;5.10;;;;;;;17.08;72.12;100449.36;1696637;84;21056;-83
2021/08/20 03:32:38;;;;;;;7.97;5.70;;;;;;;17.07;72.15;100445.00;1696547;83;21800;-83
2021/08/20 03:35:05;;;;;;;5.10;4.58;;;;;;;17.07;72.19;100450.39;1696502;84;21009;-84
2021/08/20 03:37:31;;;;;;;5.67;4.60;;;;;;;17.09;72.21;100448.84;1696414;83;21116;-83
2021/08/20 03:39:57;;;;;;;7.17;4.92;;;;;;;17.09;72.22;100452.89;1696392;84;21048;-83
2021/08/20 03:42:23;;;;;;;4.95;3.85;;;;;;;17.08;72.25;100447.19;1696432;84;21151;-83
2021/08/20 03:44:49;;;;;;;7.83;4.50;;;;;;;17.07;72.27;100446.35;1696205;84;21117;-83
2021/08/20 03:47:15;;;;;;;7.28;5.20;;;;;;;17.07;72.29;100450.39;1696489;84;21009;-83
2021/08/20 03:49:41;;;;;;;9.23;6.67;;;;;;;17.07;72.33;100444.17;1696667;84;21052;-83
2021/08/20 03:52:07;;;;;;;10.03;6.22;;;;;;;17.07;72.32;100446.35;1696803;84;20961;-84
2021/08/20 03:54:33;;;;;;;5.47;4.22;;;;;;;17.09;72.33;100444.81;1696552;84;21065;-83
2021/08/20 03:56:59;;;;;;;5.50;4.58;;;;;;;17.08;72.35;100446.67;1696600;83;21186;-83
2021/08/20 03:59:25;;;;;;;5.40;4.83;;;;;;;17.07;72.37;100439.61;1696559;84;21584;-83
2021/08/20 04:01:51;;;;;;;8.00;5.30;;;;;;;17.08;72.38;100443.97;1696726;84;21064;-84
2021/08/20 04:04:17;;;;;;;7.30;4.87;;;;;;;17.09;72.39;100448.34;1696557;84;21532;-83
2021/08/20 04:06:43;;;;;;;8.35;4.50;;;;;;;17.09;72.37;100449.69;1696666;84;21036;-83
2021/08/20 04:09:10;;;;;;;6.62;4.10;;;;;;;17.08;72.42;100453.92;1696714;84;21178;-83
2021/08/20 04:11:36;;;;;;;7.70;4.90;;;;;;;17.09;72.42;100453.73;1696542;84;20977;-83
2021/08/20 04:14:03;;;;;;;6.92;4.62;;;;;;;17.10;72.42;100460.75;1696567;84;21297;-83
2021/08/20 04:16:31;;;;;;;5.67;4.60;;;;;;;17.08;72.43;100457.45;1696457;84;21005;-83
2021/08/20 04:18:57;;;;;;;8.18;4.85;;;;;;;17.09;72.46;100464.50;1696343;84;21522;-83
2021/08/20 04:21:23;;;;;;;8.03;4.80;;;;;;;17.09;72.49;100463.16;1696560;84;21482;-83
2021/08/20 04:23:49;;;;;;;6.90;5.37;;;;;;;17.10;72.50;100466.14;1696734;84;21037;-83
2021/08/20 04:26:15;;;;;;;5.60;5.00;;;;;;;17.12;72.51;100465.42;1696494;84;21001;-83
2021/08/20 04:28:41;;;;;;;9.63;5.42;;;;;;;17.12;72.52;100462.73;1696322;84;21463;-83
2021/08/20 04:31:07;;;;;;;13.40;6.90;;;;;;;17.13;72.52;100464.40;1696678;84;20954;-83
2021/08/20 04:33:33;;;;;;;9.45;6.00;;;;;;;17.15;72.51;100458.27;1696062;84;21159;-83
2021/08/20 04:38:46;;;;;;;10.75;6.45;;;;;;;17.22;72.50;100460.94;1796271;78;38324;-83
2021/08/20 04:41:12;;;;;;;9.55;5.10;;;;;;;17.25;72.53;100462.69;1798027;79;20947;-83
2021/08/20 04:43:38;;;;;;;7.50;4.75;;;;;;;17.25;72.55;100464.04;1798275;79;21103;-83
2021/08/20 04:46:05;;;;;;;7.97;5.08;;;;;;;17.26;72.56;100458.96;1797851;79;20934;-83
2021/08/20 04:48:31;;;;;;;8.93;5.92;;;;;;;17.27;72.56;100456.58;1798073;79;20977;-83
2021/08/20 04:50:58;;;;;;;7.47;5.45;;;;;;;17.28;72.53;100456.88;1798070;79;21050;-84
2021/08/20 04:53:28;;;;;;;7.47;5.53;;;;;;;17.29;72.53;100455.84;1798261;79;21050;-83
2021/08/20 04:55:52;;;;;;;6.80;5.30;;;;;;;17.30;72.49;100457.50;1797509;79;21468;-84
2021/08/20 04:58:18;;;;;;;10.23;5.75;;;;;;;17.31;72.49;100463.18;1798122;79;21026;-83
2021/08/20 05:00:46;;;;;;;6.28;5.20;;;;;;;17.33;72.50;100462.47;1798150;79;20887;-83
2021/08/20 05:03:13;;;;;;;6.45;5.75;;;;;;;17.35;72.45;100463.07;1798144;79;20951;-83
2021/08/20 05:05:42;;;;;;;5.67;5.00;;;;;;;17.37;72.46;100469.61;1786085;79;21066;-83
2021/08/20 05:08:08;;;;;;;6.05;5.45;;;;;;;17.37;72.45;100462.36;1766498;81;21101;-79
2021/08/20 05:10:34;;;;;;;8.73;5.50;;;;;;;17.40;72.42;100468.67;1766524;81;20999;-79
2021/08/20 05:13:00;;;;;;;7.33;5.65;;;;;;;17.43;72.39;100470.94;1768391;79;20909;-73
2021/08/20 05:15:27;;;;;;;7.42;5.42;;;;;;;17.45;72.40;100463.99;1785012;79;21070;-72
2021/08/20 05:17:54;;;;;;;6.90;6.17;;;;;;;17.48;72.37;100466.26;1778873;79;21597;-72
2021/08/20 05:20:20;;;;;;;11.12;6.58;;;;;;;17.51;72.38;100466.34;1786731;78;21237;-72
2021/08/20 05:22:49;;;;;;;10.03;7.33;;;;;;;17.55;72.36;100471.63;1735358;82;21022;-72
2021/08/20 05:25:15;;;;;;;8.30;5.03;;;;;;;17.56;72.33;100474.13;1720892;81;21155;-72
2021/08/20 05:27:41;;;;;;;6.87;5.70;;;;;;;17.60;72.31;100482.61;1754825;80;21481;-72
2021/08/20 05:30:09;;;;;;;6.03;5.10;;;;;;;17.64;72.26;100486.55;1761363;80;20982;-72
2021/08/20 05:32:35;;;;;;;9.88;5.87;;;;;;;17.66;72.27;100485.28;1761950;80;21556;-72
2021/08/20 05:35:03;;;;;;;8.83;5.22;;;;;;;17.71;72.22;100489.53;1761739;80;21026;-72
2021/08/20 05:37:29;;;;;;;23.10;6.12;;;;;;;17.73;72.19;100493.38;1755184;81;21068;-72
2021/08/20 05:39:55;;;;;;;10.53;5.83;;;;;;;17.72;72.13;100486.31;1762281;80;20931;-72
2021/08/20 05:42:21;;;;;;;6.47;5.72;;;;;;;17.73;72.12;100493.38;1758170;80;21060;-72
2021/08/20 05:44:47;;;;;;;10.20;5.50;;;;;;;17.74;72.10;100503.93;1764382;80;21682;-72
2021/08/20 05:47:13;;;;;;;9.85;6.37;;;;;;;17.77;72.09;100510.76;1771530;80;21706;-72
2021/08/20 05:49:39;;;;;;;8.95;5.92;;;;;;;17.79;72.06;100501.44;1750553;80;20908;-72
2021/08/20 05:52:06;;;;;;;7.85;5.83;;;;;;;17.82;72.03;100500.17;1758977;80;20999;-72
2021/08/20 05:54:32;;;;;;;7.58;6.00;;;;;;;17.85;72.02;100502.44;1753203;81;21095;-72
2021/08/20 05:57:01;;;;;;;9.75;6.22;;;;;;;17.87;72.00;100511.16;1751025;81;21256;-72
2021/08/20 05:59:27;;;;;;;9.40;5.47;;;;;;;17.92;71.96;100505.93;1744559;81;20938;-72
2021/08/20 06:01:53;;;;;;;9.60;5.75;;;;;;;17.94;71.92;100506.56;1755315;81;21445;-72
2021/08/20 06:04:19;;;;;;;8.15;6.50;;;;;;;17.96;71.86;100507.16;1751636;81;20987;-72
2021/08/20 06:06:45;;;;;;;6.83;5.45;;;;;;;17.97;71.82;100506.13;1747316;81;21020;-72
2021/08/20 06:09:11;;;;;;;6.83;6.12;;;;;;;18.00;71.79;100500.30;1748484;81;21194;-72
2021/08/20 06:11:37;;;;;;;8.73;6.75;;;;;;;18.07;71.75;100504.30;1749583;81;21038;-72
2021/08/20 06:14:03;;;;;;;12.30;7.00;;;;;;;18.12;71.72;100502.59;1749561;81;21066;-72
2021/08/20 06:16:29;;;;;;;13.38;7.50;;;;;;;18.18;71.67;100503.11;1747809;81;20862;-72
2021/08/20 06:18:55;;;;;;;8.48;6.85;;;;;;;18.22;71.62;100504.33;1747996;81;20960;-72
2021/08/20 06:21:21;;;;;;;9.08;6.83;;;;;;;18.27;71.60;100505.84;1752276;81;21104;-72
2021/08/20 06:23:47;;;;;;;7.95;6.08;;;;;;;18.33;71.56;100503.61;1758764;81;20991;-72
2021/08/20 06:26:13;;;;;;;12.35;7.05;;;;;;;18.36;71.47;100507.77;1753648;81;20919;-72
2021/08/20 06:28:39;;;;;;;21.05;6.85;;;;;;;18.35;71.42;100502.89;1746311;81;20979;-72
2021/08/20 06:31:05;;;;;;;13.03;9.03;;;;;;;18.39;71.39;100508.16;1756253;81;21516;-72
2021/08/20 06:33:32;;;;;;;13.50;9.00;;;;;;;18.41;71.34;100507.41;1754780;81;21800;-72
2021/08/20 06:35:58;;;;;;;9.40;7.92;;;;;;;18.41;71.31;100512.81;1744859;81;20993;-72
2021/08/20 06:38:24;;;;;;;10.53;8.10;;;;;;;18.35;71.33;100520.44;1727394;81;21037;-72
2021/08/20 06:40:50;;;;;;;10.43;8.58;;;;;;;18.23;71.37;100523.52;1740607;82;20892;-72
2021/08/20 06:43:16;;;;;;;13.58;9.35;;;;;;;18.07;71.51;100528.08;1762462;80;21528;-72
2021/08/20 06:45:42;;;;;;;10.60;8.33;;;;;;;17.90;71.67;100533.66;1775364;80;21720;-73
2021/08/20 06:48:08;;;;;;;10.85;8.88;;;;;;;17.76;71.86;100530.70;1738360;80;21015;-73
2021/08/20 06:50:34;;;;;;;16.30;9.60;;;;;;;17.62;72.07;100527.23;1764424;80;21068;-73
2021/08/20 06:53:00;;;;;;;13.53;9.98;;;;;;;17.49;72.29;100526.70;1777465;80;21561;-72
2021/08/20 06:55:31;;;;;;;12.78;10.90;;;;;;;17.46;72.54;100523.08;1721403;81;21019;-73
2021/08/20 06:57:57;;;;;;;14.68;11.18;;;;;;;17.39;72.73;100530.36;1767730;80;21495;-73
2021/08/20 07:00:23;;;;;;;13.30;10.68;;;;;;;17.36;72.96;100534.83;1774585;80;20998;-73
2021/08/20 07:02:49;;;;;;;15.93;11.93;;;;;;;17.36;73.16;100532.14;1774156;80;21038;-73
2021/08/20 07:05:16;;;;;;;12.28;10.30;;;;;;;17.33;73.32;100533.91;1775533;80;21085;-73
2021/08/20 07:07:42;;;;;;;14.35;11.53;;;;;;;17.31;73.53;100533.27;1755267;80;21041;-72
2021/08/20 07:10:11;;;;;;;16.57;12.40;;;;;;;17.24;73.75;100532.45;1760572;80;21048;-72
2021/08/20 07:12:38;;;;;;;14.23;10.82;;;;;;;17.20;73.92;100542.02;1764978;80;21031;-73
2021/08/20 07:15:05;;;;;;;12.82;10.58;;;;;;;17.17;74.11;100537.02;1761233;80;21988;-73
2021/08/20 07:17:31;;;;;;;13.00;10.35;;;;;;;17.15;74.35;100539.11;1774074;80;21113;-72
2021/08/20 07:19:58;;;;;;;12.82;10.58;;;;;;;17.12;74.49;100539.53;1769763;80;21123;-72
2021/08/20 07:22:24;;;;;;;12.75;10.63;;;;;;;17.18;74.67;100544.09;1769259;80;21823;-72
2021/08/20 07:24:50;;;;;;;12.93;9.60;;;;;;;17.27;74.88;100549.58;1768789;80;21109;-72
2021/08/20 07:27:17;;;;;;;13.72;9.88;;;;;;;17.40;75.01;100547.38;1775801;80;21046;-71
2021/08/20 07:29:43;;;;;;;12.70;11.08;;;;;;;17.50;75.13;100542.37;1771422;79;21324;-72
2021/08/20 07:32:09;;;;;;;14.35;11.53;;;;;;;17.60;75.26;100540.09;1779678;79;21487;-72
2021/08/20 07:34:35;;;;;;;12.65;10.25;;;;;;;17.68;75.37;100539.03;1769582;80;22474;-72
2021/08/20 07:37:01;;;;;;;12.53;10.38;;;;;;;17.67;75.49;100543.59;1767100;79;20865;-72
2021/08/20 07:39:27;;;;;;;13.55;10.82;;;;;;;17.69;75.55;100544.74;1761328;80;21021;-72
2021/08/20 07:41:54;;;;;;;11.90;10.58;;;;;;;17.79;75.66;100547.81;1780298;80;20987;-78
2021/08/20 07:44:20;;;;;;;12.50;10.80;;;;;;;17.83;75.72;100543.14;1791983;79;20998;-78
2021/08/20 07:46:46;;;;;;;12.20;9.83;;;;;;;17.91;75.80;100544.22;1761385;80;21159;-79
2021/08/20 07:49:12;;;;;;;13.83;11.15;;;;;;;18.00;75.80;100548.87;1751946;82;20848;-78
2021/08/20 07:51:38;;;;;;;13.48;10.95;;;;;;;18.07;75.85;100543.44;1751913;82;21054;-78
2021/08/20 07:54:04;;;;;;;12.65;10.40;;;;;;;18.16;75.92;100547.53;1751951;81;21002;-79
2021/08/20 07:56:30;;;;;;;13.10;10.15;;;;;;;18.20;75.92;100548.25;1752155;82;21456;-79
2021/08/20 07:58:56;;;;;;;15.70;10.78;;;;;;;18.27;75.94;100549.55;1751994;82;21975;-78
2021/08/20 08:01:22;;;;;;;13.08;9.78;;;;;;;18.39;76.01;100548.67;1752002;82;21051;-78
2021/08/20 08:03:48;;;;;;;10.60;9.50;;;;;;;18.48;75.98;100547.35;1752152;82;20964;-79
2021/08/20 08:06:16;;;;;;;11.15;10.05;;;;;;;18.58;75.95;100540.69;1752035;81;21058;-78
2021/08/20 08:08:43;;;;;;;11.50;10.13;;;;;;;18.61;75.95;100542.95;1751783;82;21007;-78
2021/08/20 08:11:09;;;;;;;12.28;10.98;;;;;;;18.61;75.98;100538.90;1752006;81;21181;-78
2021/08/20 08:13:36;;;;;;;14.83;11.38;;;;;;;18.66;75.97;100543.11;1751935;82;21027;-78
2021/08/20 08:16:03;;;;;;;13.88;12.40;;;;;;;18.75;75.98;100544.52;1752033;81;21035;-78
2021/08/20 08:18:29;;;;;;;12.82;11.40;;;;;;;18.91;75.96;100542.60;1751745;81;21516;-78
2021/08/20 08:20:55;;;;;;;13.05;11.38;;;;;;;19.04;75.91;100547.89;1752311;82;21532;-78
2021/08/20 08:23:21;;;;;;;12.70;11.12;;;;;;;19.15;75.83;100548.52;1751691;82;21617;-78
2021/08/20 08:25:47;;;;;;;15.00;11.60;;;;;;;19.28;75.73;100548.39;1752071;82;20995;-78
2021/08/20 08:28:13;;;;;;;13.00;11.57;;;;;;;19.41;75.68;100542.90;1751945;81;20980;-79
2021/08/20 08:30:41;;;;;;;14.28;10.43;;;;;;;19.67;75.57;100544.99;1751864;82;21066;-78
2021/08/20 08:33:09;;;;;;;13.65;10.75;;;;;;;19.87;75.43;100544.25;1751972;81;21015;-78
2021/08/20 08:35:35;;;;;;;13.98;12.33;;;;;;;20.02;75.29;100544.66;1752077;81;21196;-78
2021/08/20 08:38:05;;;;;;;14.20;12.55;;;;;;;20.08;75.09;100545.13;1751714;81;21614;-78
2021/08/20 08:40:33;;;;;;;12.85;11.35;;;;;;;20.17;74.84;100541.56;1751040;82;20996;-78
2021/08/20 08:42:59;;;;;;;13.40;10.68;;;;;;;20.21;74.68;100538.17;1751626;82;20975;-79
2021/08/20 08:45:25;;;;;;;12.40;10.18;;;;;;;20.28;74.56;100544.36;1751195;82;20994;-78
2021/08/20 08:47:54;;;;;;;12.55;10.60;;;;;;;20.37;74.39;100542.17;1751455;82;21267;-79
2021/08/20 08:50:21;;;;;;;14.05;10.68;;;;;;;20.37;74.22;100538.11;1751461;82;21035;-78
2021/08/20 08:52:47;;;;;;;13.78;9.88;;;;;;;20.45;74.00;100543.17;1751560;81;21058;-79
2021/08/20 08:55:13;;;;;;;13.13;10.80;;;;;;;20.39;73.75;100543.58;1751405;82;21376;-79
2021/08/20 08:57:39;;;;;;;12.50;10.43;;;;;;;20.35;73.58;100546.97;1751662;81;20972;-79
2021/08/20 09:00:07;;;;;;;18.92;10.15;;;;;;;20.33;73.42;100547.22;1751642;82;21492;-79
2021/08/20 09:02:34;;;;;;;12.30;10.40;;;;;;;20.41;73.28;100553.65;1751160;82;21428;-78
2021/08/20 09:05:03;;;;;;;12.25;10.28;;;;;;;20.55;73.11;100556.98;1751566;82;21019;-79
2021/08/20 09:07:29;;;;;;;14.85;11.30;;;;;;;20.52;72.91;100555.27;1751441;82;20988;-78
2021/08/20 09:10:20;;;;;;;13.20;10.93;;;;;;;20.56;72.76;100555.11;1751216;82;20915;-78
2021/08/20 09:12:58;;;;;;;16.90;10.63;;;;;;;20.62;72.64;100552.84;1751340;82;21202;-78
2021/08/20 09:15:30;;;;;;;14.55;11.20;;;;;;;20.65;72.40;100558.63;1751167;82;21051;-78
2021/08/20 09:17:58;;;;;;;13.28;10.90;;;;;;;20.66;72.15;100558.08;1751413;81;21538;-79
2021/08/20 09:20:32;;;;;;;13.65;10.18;;;;;;;20.60;71.95;100565.78;1751368;82;21007;-79
2021/08/20 09:23:01;;;;;;;16.77;11.35;;;;;;;20.66;71.82;100566.21;1751380;82;21003;-79
2021/08/20 09:25:40;;;;;;;13.40;11.18;;;;;;;20.87;71.72;100562.95;1747818;82;21344;-78
2021/08/20 09:28:26;;;;;;;14.63;11.18;;;;;;;21.09;71.46;100565.41;1751368;82;21009;-78
2021/08/20 09:31:00;;;;;;;12.40;9.88;;;;;;;21.26;71.17;100560.97;1751538;82;21069;-79
2021/08/20 09:33:33;;;;;;;12.68;10.38;;;;;;;21.36;70.83;100558.48;1751484;81;21007;-79
2021/08/20 09:36:16;;;;;;;13.58;9.65;;;;;;;21.39;70.56;100559.92;1750982;82;21018;-78
2021/08/20 09:38:52;;;;;;;13.35;10.72;;;;;;;21.41;70.20;100561.33;1753288;81;21474;-78
2021/08/20 09:41:32;;;;;;;12.00;9.03;;;;;;;21.32;69.79;100563.29;1757076;81;21497;-78
2021/08/20 09:43:59;;;;;;;11.08;8.90;;;;;;;21.23;69.38;100562.80;1755627;81;21798;-78
2021/08/20 09:46:25;;;;;;;12.28;9.98;;;;;;;21.07;69.01;100564.84;1756816;81;20983;-79
2021/08/20 09:48:59;;;;;;;12.10;9.93;;;;;;;21.04;68.75;100562.56;1757044;81;21030;-78
2021/08/20 09:51:42;;;;;;;10.85;9.73;;;;;;;21.03;68.53;100560.11;1743772;82;22213;-78
2021/08/20 09:54:26;;;;;;;10.55;9.13;;;;;;;21.18;68.43;100555.89;1734246;82;21563;-78
2021/08/20 09:56:50;;;;;;;11.68;9.73;;;;;;;21.33;68.25;100554.90;1732995;82;21086;-78
2021/08/20 09:59:17;;;;;;;12.25;10.55;;;;;;;21.45;68.14;100560.86;1734172;82;21073;-78
2021/08/20 10:01:46;;;;;;;9.95;8.95;;;;;;;21.42;67.92;100559.45;1734620;82;20971;-78
2021/08/20 10:04:14;;;;;;;10.95;9.38;;;;;;;21.23;67.47;100554.66;1733909;81;21481;-79
2021/08/20 10:06:45;;;;;;;15.85;10.58;;;;;;;21.14;67.38;100549.83;1734179;82;21026;-78
2021/08/20 10:09:16;;;;;;;11.03;9.40;;;;;;;21.17;67.34;100554.27;1743083;79;21042;-77
2021/08/20 10:11:52;;;;;;;10.60;9.43;;;;;;;21.25;67.22;100550.38;1753353;80;21062;-77
2021/08/20 10:14:21;;;;;;;14.05;10.93;;;;;;;21.32;67.08;100543.73;1743520;81;21541;-77
2021/08/20 10:16:47;;;;;;;11.43;9.48;;;;;;;21.35;67.04;100543.30;1773690;80;21290;-77
2021/08/20 10:19:13;;;;;;;10.45;8.43;;;;;;;21.38;66.88;100547.41;1765452;80;21057;-77
2021/08/20 10:21:42;;;;;;;8.28;7.03;;;;;;;21.48;66.81;100549.52;1762236;80;21075;-78
2021/08/20 10:24:09;;;;;;;9.48;8.38;;;;;;;21.56;66.65;100543.73;1763100;80;21272;-78
2021/08/20 10:26:47;;;;;;;11.90;7.70;;;;;;;21.54;66.47;100541.25;1765088;80;21068;-77
2021/08/20 10:29:13;;;;;;;12.00;10.55;;;;;;;21.61;66.45;100535.16;1731196;81;21515;-78
2021/08/20 10:31:43;;;;;;;8.23;7.37;;;;;;;21.74;66.30;100530.02;1761879;80;21038;-72
2021/08/20 10:34:33;;;;;;;10.72;7.90;;;;;;;21.70;65.94;100527.48;1748847;81;21051;-78
2021/08/20 10:37:12;;;;;;;7.60;6.80;;;;;;;21.76;65.73;100536.02;1749470;80;21008;-78
2021/08/20 10:39:46;;;;;;;7.33;5.97;;;;;;;21.94;65.66;100533.70;1750578;81;21495;-78
2021/08/20 10:42:40;;;;;;;6.65;5.97;;;;;;;22.03;65.47;100531.72;1752936;81;21544;-78
2021/08/20 10:45:11;;;;;;;7.62;6.85;;;;;;;22.26;65.30;100528.92;1750865;81;21508;-78
2021/08/20 10:47:37;;;;;;;7.25;6.28;;;;;;;22.49;65.00;100530.69;1753455;81;21066;-78
2021/08/20 10:50:18;;;;;;;7.60;6.55;;;;;;;22.58;64.71;100531.95;1753357;81;21011;-79
2021/08/20 10:52:49;;;;;;;8.03;6.85;;;;;;;22.57;64.31;100527.58;1753567;81;21118;-78
2021/08/20 10:55:26;;;;;;;8.03;6.37;;;;;;;22.52;64.13;100532.11;1753163;81;22451;-78
2021/08/20 10:57:54;;;;;;;7.08;6.37;;;;;;;22.59;63.93;100528.14;1751949;81;21066;-78
2021/08/20 11:00:24;;;;;;;13.33;7.17;;;;;;;22.64;63.69;100526.89;1753761;81;20962;-78
2021/08/20 11:02:51;;;;;;;10.50;7.60;;;;;;;22.71;63.43;100522.67;1753662;81;20996;-78
2021/08/20 11:05:19;;;;;;;7.35;6.50;;;;;;;22.78;63.29;100521.45;1753563;81;21011;-78
2021/08/20 11:07:46;;;;;;;11.15;7.25;;;;;;;22.94;63.16;100518.42;1753397;81;22643;-78
2021/08/20 11:10:18;;;;;;;7.92;7.10;;;;;;;23.05;62.94;100512.07;1753295;81;21058;-78
2021/08/20 11:12:58;;;;;;;6.75;5.67;;;;;;;23.20;62.69;100510.95;1753423;81;20995;-78
2021/08/20 11:15:33;;;;;;;7.58;6.10;;;;;;;23.28;62.18;100506.45;1753516;81;21005;-78
2021/08/20 11:18:05;;;;;;;8.35;6.35;;;;;;;23.55;61.88;100503.84;1753553;81;20995;-79
2021/08/20 11:20:41;;;;;;;10.00;6.53;;;;;;;23.64;61.61;100502.34;1753071;81;21927;-78
2021/08/20 11:23:15;;;;;;;8.80;6.50;;;;;;;23.65;61.05;100504.50;1753631;81;21023;-78
2021/08/20 11:25:57;;;;;;;7.33;5.83;;;;;;;23.67;60.78;100507.81;1753417;81;21042;-79